createdAt,value
2023-04-10T00:01:06.097Z,0
2023-04-10T00:06:15.865Z,0
2023-04-10T00:11:25.608Z,0
2023-04-10T00:16:35.575Z,0
2023-04-10T00:21:43.869Z,0
2023-04-10T00:26:52.339Z,0
2023-04-10T00:32:03.651Z,0
2023-04-10T00:37:12.518Z,0
2023-04-10T00:42:22.248Z,0
2023-04-10T00:47:32.178Z,0
2023-04-10T00:52:41.156Z,0
2023-04-10T00:57:50.258Z,0
2023-04-10T01:03:00.121Z,0
2023-04-10T01:08:11.798Z,0
2023-04-10T01:13:21.472Z,0
2023-04-10T01:18:31.221Z,0
2023-04-10T01:23:41.657Z,0
2023-04-10T01:28:51.386Z,0
2023-04-10T01:34:00.004Z,0
2023-04-10T01:39:08.336Z,0
2023-04-10T01:44:17.465Z,0
2023-04-10T01:49:27.267Z,0
2023-04-10T01:54:36.985Z,0
2023-04-10T01:59:46.116Z,0
2023-04-10T02:04:54.768Z,0
2023-04-10T02:10:03.057Z,0
2023-04-10T02:15:14.117Z,0
2023-04-10T02:20:23.241Z,0
2023-04-10T02:25:31.716Z,0
2023-04-10T02:30:40.204Z,0
2023-04-10T02:35:49.401Z,0
2023-04-10T02:40:58.457Z,0
2023-04-10T02:46:07.537Z,0
2023-04-10T02:51:17.307Z,0
2023-04-10T02:56:27.057Z,0
2023-04-10T03:01:36.509Z,0
2023-04-10T03:06:45.952Z,0
2023-04-10T03:20:56.370Z,0
2023-04-10T03:37:25.513Z,0
2023-04-10T03:46:26.289Z,0
2023-04-10T04:01:36.977Z,0
2023-04-10T04:08:25.817Z,0
2023-04-10T04:14:25.468Z,0
2023-04-10T04:19:35.905Z,1
2023-04-10T04:24:45.641Z,2
2023-04-10T04:29:54.105Z,6
2023-04-10T04:35:04.513Z,13
2023-04-10T04:40:12.981Z,26
2023-04-10T04:45:22.203Z,50
2023-04-10T04:50:31.888Z,75
2023-04-10T04:55:41.611Z,112
2023-04-10T05:00:51.553Z,166
2023-04-10T05:06:01.168Z,220
2023-04-10T05:11:10.255Z,266
2023-04-10T05:16:20.481Z,325
2023-04-10T05:21:29.133Z,356
2023-04-10T05:26:38.886Z,406
2023-04-10T05:31:48.048Z,460
2023-04-10T05:36:59.541Z,512
2023-04-10T05:42:06.962Z,578
2023-04-10T05:47:16.731Z,590
2023-04-10T05:52:25.779Z,640
2023-04-10T05:57:35.571Z,705
2023-04-10T06:02:46.071Z,831
2023-04-10T06:07:58.725Z,1006
2023-04-10T06:13:03.563Z,1147
2023-04-10T06:18:12.662Z,1259
2023-04-10T06:23:21.796Z,1363
2023-04-10T06:28:32.181Z,1509
2023-04-10T06:33:42.598Z,1454
2023-04-10T06:38:51.630Z,1486
2023-04-10T06:44:03.963Z,1439
2023-04-10T06:49:10.594Z,1384
2023-04-10T06:54:19.733Z,1448
2023-04-10T06:59:29.475Z,1513
2023-04-10T07:04:39.245Z,1728
2023-04-10T07:09:48.992Z,1921
2023-04-10T07:14:58.198Z,2197
2023-04-10T07:20:07.272Z,2364
2023-04-10T07:25:15.742Z,2438
2023-04-10T07:30:24.828Z,2495
2023-04-10T07:35:34.697Z,2522
2023-04-10T07:40:43.743Z,2533
2023-04-10T07:45:53.648Z,2542
2023-04-10T07:51:03.231Z,2573
2023-04-10T07:56:12.356Z,2579
2023-04-10T08:01:22.767Z,2411
2023-04-10T08:06:31.214Z,2369
2023-04-10T08:11:40.348Z,2175
2023-04-10T08:16:49.804Z,1955
2023-04-10T08:21:59.238Z,1677
2023-04-10T08:27:08.363Z,1792
2023-04-10T08:32:17.465Z,1990
2023-04-10T08:37:28.499Z,1998
2023-04-10T08:42:38.273Z,2138
2023-04-10T08:47:48.238Z,2382
2023-04-10T08:52:57.802Z,2515
2023-04-10T08:58:08.195Z,2572
2023-04-10T09:03:18.690Z,2625
2023-04-10T09:08:26.409Z,2697
2023-04-10T09:13:35.542Z,2830
2023-04-10T09:18:44.670Z,2892
2023-04-10T09:23:55.195Z,2904
2023-04-10T09:29:02.972Z,3091
2023-04-10T09:34:13.367Z,3152
2023-04-10T09:39:22.466Z,3286
2023-04-10T09:44:31.011Z,3638
2023-04-10T09:49:40.774Z,3865
2023-04-10T09:54:49.157Z,3737
2023-04-10T09:59:57.656Z,3739
2023-04-10T10:05:07.837Z,3774
2023-04-10T10:10:16.533Z,3870
2023-04-10T10:15:25.682Z,3849
2023-04-10T10:20:37.148Z,3918
2023-04-10T10:25:45.141Z,4056
2023-04-10T10:30:55.567Z,4199
2023-04-10T10:36:07.266Z,4360
2023-04-10T10:41:16.971Z,4215
2023-04-10T10:46:25.443Z,4145
2023-04-10T10:51:35.219Z,4187
2023-04-10T10:56:44.997Z,4297
2023-04-10T11:01:54.786Z,4518
2023-04-10T11:07:03.862Z,4320
2023-04-10T11:12:13.688Z,4122
2023-04-10T11:17:26.069Z,3933
2023-04-10T11:22:35.705Z,3940
2023-04-10T11:27:45.190Z,4051
2023-04-10T11:32:55.459Z,4136
2023-04-10T11:38:06.258Z,4189
2023-04-10T11:43:16.032Z,4289
2023-04-10T11:48:26.415Z,4178
2023-04-10T11:53:34.903Z,4162
2023-04-10T11:58:44.659Z,4237
2023-04-10T12:03:55.198Z,4261
2023-04-10T12:09:02.918Z,4270
2023-04-10T12:14:13.296Z,4295
2023-04-10T12:19:23.788Z,4096
2023-04-10T12:24:34.119Z,3955
2023-04-10T12:29:44.496Z,3766
2023-04-10T12:34:54.922Z,3709
2023-04-10T12:40:03.384Z,4391
2023-04-10T12:45:13.151Z,4596
2023-04-10T12:50:21.719Z,4652
2023-04-10T12:55:30.128Z,4489
2023-04-10T13:00:40.524Z,4432
2023-04-10T13:05:49.635Z,3627
2023-04-10T13:10:59.353Z,3389
2023-04-10T13:16:08.816Z,3798
2023-04-10T13:21:18.263Z,3308
2023-04-10T13:26:28.020Z,3331
2023-04-10T13:31:38.122Z,3352
2023-04-10T13:36:47.712Z,3489
2023-04-10T13:41:57.299Z,3440
2023-04-10T13:47:07.832Z,3592
2023-04-10T13:52:16.217Z,4362
2023-04-10T13:57:25.969Z,4060
2023-04-10T14:02:36.256Z,3677
2023-04-10T14:07:44.842Z,3680
2023-04-10T14:12:55.230Z,3565
2023-04-10T14:18:05.123Z,3453
2023-04-10T14:23:14.743Z,3157
2023-04-10T14:28:23.876Z,2997
2023-04-10T14:33:35.888Z,3265
2023-04-10T14:38:44.734Z,2919
2023-04-10T14:43:54.849Z,2093
2023-04-10T14:49:04.881Z,1956
2023-04-10T14:54:13.297Z,1979
2023-04-10T14:59:23.388Z,1870
2023-04-10T15:04:33.385Z,1614
2023-04-10T15:09:42.619Z,1530
2023-04-10T15:14:52.346Z,1168
2023-04-10T15:20:02.777Z,874
2023-04-10T15:25:11.871Z,722
2023-04-10T15:30:21.645Z,722
2023-04-10T15:35:31.527Z,807
2023-04-10T15:40:41.802Z,907
2023-04-10T15:45:51.083Z,954
2023-04-10T15:51:00.667Z,1130
2023-04-10T15:56:09.159Z,1014
2023-04-10T16:01:17.782Z,945
2023-04-10T16:06:28.037Z,961
2023-04-10T16:11:37.785Z,1099
2023-04-10T16:16:47.692Z,1412
2023-04-10T16:21:56.659Z,1782
2023-04-10T16:27:05.797Z,2211
2023-04-10T16:32:14.898Z,2452
2023-04-10T16:37:23.957Z,1461
2023-04-10T16:42:33.151Z,919
2023-04-10T16:47:43.009Z,667
2023-04-10T16:52:52.727Z,535
2023-04-10T16:58:02.415Z,395
2023-04-10T17:03:11.831Z,353
2023-04-10T17:08:20.027Z,395
2023-04-10T17:13:29.789Z,361
2023-04-10T17:18:39.558Z,313
2023-04-10T17:23:48.665Z,334
2023-04-10T17:28:57.786Z,303
2023-04-10T17:34:08.194Z,275
2023-04-10T17:39:17.316Z,128
2023-04-10T17:44:25.768Z,61
2023-04-10T17:49:34.299Z,76
2023-04-10T17:54:44.036Z,41
2023-04-10T17:59:53.789Z,52
2023-04-10T18:05:04.189Z,31
2023-04-10T18:10:12.688Z,13
2023-04-10T18:15:21.796Z,8
2023-04-10T18:20:31.571Z,2
2023-04-10T18:25:41.291Z,1
2023-04-10T18:30:51.251Z,1
2023-04-10T18:36:00.983Z,0
2023-04-10T18:41:09.968Z,0
2023-04-10T18:46:19.920Z,0
2023-04-10T18:51:28.836Z,0
2023-04-10T18:56:38.741Z,0
2023-04-10T19:01:48.698Z,0
2023-04-10T19:06:56.831Z,0
2023-04-10T19:12:05.321Z,0
2023-04-10T19:17:14.420Z,0
2023-04-10T19:22:24.206Z,0
2023-04-10T19:27:35.864Z,0
2023-04-10T19:32:43.917Z,0
2023-04-10T19:37:52.808Z,0
2023-04-10T19:43:02.663Z,0
2023-04-10T19:48:12.356Z,0
2023-04-10T19:53:20.970Z,0
2023-04-10T19:58:56.513Z,0
2023-04-10T20:03:42.427Z,0
2023-04-10T20:08:53.232Z,0
2023-04-10T20:14:01.145Z,0
2023-04-10T20:19:10.260Z,0
2023-04-10T20:24:20.757Z,0
2023-04-10T20:29:29.772Z,0
2023-04-10T20:34:38.266Z,0
2023-04-10T20:39:47.413Z,0
2023-04-10T20:44:55.854Z,0
2023-04-10T20:50:05.640Z,0
2023-04-10T20:55:15.361Z,0
2023-04-10T21:00:24.490Z,0
2023-04-10T21:05:34.282Z,0
2023-04-10T21:10:44.359Z,0
2023-04-10T21:15:53.768Z,0
2023-04-10T21:21:02.257Z,0
2023-04-10T21:26:11.402Z,0
2023-04-10T21:31:20.728Z,0
2023-04-10T21:36:29.616Z,0
2023-04-10T21:41:38.758Z,0
2023-04-10T21:46:47.248Z,0
2023-04-10T21:51:55.705Z,0
2023-04-10T21:57:06.196Z,0
2023-04-10T22:02:15.436Z,0
2023-04-10T22:07:25.624Z,0
2023-04-10T22:12:35.381Z,0
2023-04-10T22:17:44.259Z,0
2023-04-10T22:22:52.372Z,0
2023-04-10T22:28:02.116Z,0
2023-04-10T22:33:10.832Z,0
2023-04-10T22:38:19.060Z,0
2023-04-10T22:43:28.176Z,0
2023-04-10T22:48:38.847Z,0
2023-04-10T22:53:48.325Z,0
2023-04-10T22:58:57.625Z,0
2023-04-10T23:04:06.686Z,0
2023-04-10T23:09:15.725Z,0
2023-04-10T23:14:24.844Z,0
2023-04-10T23:19:33.950Z,0
2023-04-10T23:24:42.448Z,0
2023-04-10T23:29:52.251Z,0
2023-04-10T23:35:02.625Z,0
2023-04-10T23:40:11.090Z,0
2023-04-10T23:45:20.842Z,0
2023-04-10T23:50:29.326Z,0
2023-04-10T23:55:39.737Z,0
